Time;durP1;ratioP1;P1;durP2;ratioP2;P2;SDS_P1;SDS_P2;PMS_P1;PMS_P2;Temp;Humidity;BMP_temperature;BMP_pressure;BME280_temperature;BME280_humidity;BME280_pressure;Samples;Min_cycle;Max_cycle;Signal;HPM_P1;HPM_P2
2021/12/10 00:01:48;;;;;;;46.50;22.17;;;1.00;99.90;0.60;99287.00;;;;5018879;27;87671;-68
2021/12/10 00:04:17;;;;;;;58.17;25.77;;;1.00;99.90;0.60;99277.00;;;;5023052;27;88780;-68
2021/12/10 00:06:52;;;;;;;46.60;22.90;;;0.90;99.90;0.60;99276.00;;;;5037700;27;88349;-68
2021/12/10 00:09:30;;;;;;;50.23;24.60;;;1.00;99.90;0.70;99279.00;;;;5027331;27;103909;-68
2021/12/10 00:12:06;;;;;;;51.73;25.60;;;1.00;99.90;0.70;99273.00;;;;5016219;27;87632;-68
2021/12/10 00:14:35;;;;;;;42.23;23.53;;;0.90;99.90;0.70;99267.00;;;;4998766;27;91673;-68
2021/12/10 00:17:04;;;;;;;59.23;25.23;;;1.10;99.90;0.80;99270.00;;;;5016122;27;88210;-68
2021/12/10 00:19:48;;;;;;;51.10;23.23;;;1.10;99.90;0.80;99265.00;;;;5018401;27;87674;-68
2021/12/10 00:22:31;;;;;;;45.00;23.40;;;1.10;99.90;0.80;99249.00;;;;5016587;27;87805;-68
2021/12/10 00:24:57;;;;;;;50.53;22.73;;;1.10;99.90;0.80;99263.00;;;;5018351;27;88383;-69
2021/12/10 00:27:29;;;;;;;50.53;25.93;;;1.10;99.90;0.80;99261.00;;;;5016393;27;117303;-68
2021/12/10 00:30:08;;;;;;;49.97;26.30;;;1.10;99.90;0.80;99264.00;;;;5018538;27;87724;-68
2021/12/10 00:32:41;;;;;;;56.73;25.23;;;1.10;99.90;0.80;99260.00;;;;5000119;27;87022;-69
2021/12/10 00:35:18;;;;;;;48.17;25.37;;;1.10;99.90;0.80;99248.00;;;;5028296;27;87905;-69
2021/12/10 00:37:44;;;;;;;56.97;23.90;;;1.10;99.90;0.80;99247.00;;;;5022446;27;108285;-68
2021/12/10 00:40:13;;;;;;;55.17;25.37;;;1.10;99.90;0.80;99251.00;;;;5017772;27;88727;-68
2021/12/10 00:42:39;;;;;;;46.83;25.60;;;1.20;99.90;0.70;99245.00;;;;5017635;27;99256;-68
2021/12/10 00:45:09;;;;;;;59.60;25.73;;;1.10;99.90;0.70;99241.00;;;;5018247;27;102424;-68
2021/12/10 00:47:35;;;;;;;55.27;24.60;;;1.00;99.90;0.70;99236.00;;;;5017318;27;88363;-69
2021/12/10 00:50:03;;;;;;;54.77;24.47;;;1.20;99.90;0.70;99239.00;;;;5015647;27;94674;-68
2021/12/10 00:52:29;;;;;;;40.13;24.80;;;1.00;99.90;0.70;99236.00;;;;5017117;27;91073;-68
2021/12/10 00:54:55;;;;;;;46.50;22.30;;;0.90;99.90;0.70;99240.00;;;;5017181;27;108129;-69
2021/12/10 00:57:20;;;;;;;47.27;23.13;;;1.00;99.90;0.70;99234.00;;;;5016827;27;109769;-68
2021/12/10 00:59:48;;;;;;;49.07;24.03;;;0.90;99.90;0.70;99231.00;;;;5016646;27;113375;-68
2021/12/10 01:02:18;;;;;;;48.23;24.47;;;1.00;99.90;0.70;99222.00;;;;5017903;27;87786;-69
2021/12/10 01:04:49;;;;;;;60.90;26.20;;;0.90;99.90;0.70;99216.00;;;;5020818;27;102484;-69
2021/12/10 01:07:21;;;;;;;55.13;24.93;;;1.00;99.90;0.70;99208.00;;;;5037473;27;88152;-68
2021/12/10 01:09:52;;;;;;;51.40;25.57;;;1.90;99.90;0.70;99212.00;;;;5037007;27;103483;-68
2021/12/10 01:12:32;;;;;;;52.57;23.90;;;1.00;99.90;0.70;99213.00;;;;5036478;27;98507;-69
2021/12/10 01:28:54;;;;;;;43.43;23.57;;;1.00;99.90;0.60;99202.00;;;;5017723;27;87950;-68
2021/12/10 01:31:20;;;;;;;51.00;24.37;;;1.00;99.90;0.60;99182.00;;;;5015955;27;105963;-69
2021/12/10 01:33:48;;;;;;;39.77;22.33;;;0.90;99.90;0.60;99184.00;;;;5016191;27;109642;-68
2021/12/10 01:36:14;;;;;;;38.37;21.63;;;1.00;99.90;0.60;99176.00;;;;5036729;27;88792;-68
2021/12/10 01:38:44;;;;;;;44.00;24.03;;;0.90;99.90;0.70;99166.00;;;;5037132;27;88033;-68
2021/12/10 01:41:13;;;;;;;49.10;23.50;;;1.50;99.90;0.60;99165.00;;;;5019429;27;87896;-68
2021/12/10 01:43:42;;;;;;;56.07;25.27;;;0.90;99.90;0.70;99172.00;;;;5017261;27;87807;-68
2021/12/10 01:46:26;;;;;;;43.57;24.33;;;1.00;99.90;0.60;99158.00;;;;5029657;27;89192;-68
2021/12/10 01:48:59;;;;;;;50.47;23.20;;;1.00;99.90;0.70;99162.00;;;;5015409;27;87277;-67
2021/12/10 01:51:29;;;;;;;56.03;21.90;;;1.00;99.90;0.70;99141.00;;;;5016480;27;87697;-68
2021/12/10 01:54:01;;;;;;;38.93;20.80;;;1.90;99.90;0.70;99142.00;;;;5017622;27;87646;-67
2021/12/10 01:56:30;;;;;;;42.70;21.37;;;1.00;99.90;0.80;99140.00;;;;5018496;27;90114;-67
2021/12/10 01:58:58;;;;;;;49.47;21.17;;;1.10;99.90;0.80;99130.00;;;;5021957;27;89925;-67
2021/12/10 02:01:33;;;;;;;50.03;22.80;;;1.10;99.90;0.80;99134.00;;;;5040908;27;87901;-67
2021/12/10 02:04:04;;;;;;;43.40;21.67;;;1.10;99.90;0.80;99129.00;;;;5037671;27;87798;-68
2021/12/10 02:06:30;;;;;;;46.37;23.67;;;1.10;99.90;0.90;99114.00;;;;5022290;27;106087;-68
2021/12/10 02:08:56;;;;;;;44.97;21.97;;;1.10;99.90;0.90;99120.00;;;;5038672;27;108279;-68
2021/12/10 02:11:22;;;;;;;47.23;24.73;;;1.20;99.90;0.90;99115.00;;;;5039542;27;101982;-69
2021/12/10 02:13:48;;;;;;;48.87;21.93;;;1.10;99.90;0.90;99110.00;;;;5037611;27;89089;-69
2021/12/10 02:16:15;;;;;;;50.00;23.27;;;1.10;99.90;0.90;99114.00;;;;5025588;27;112889;-68
2021/12/10 02:18:42;;;;;;;47.17;22.77;;;1.20;99.90;1.00;99103.00;;;;5012493;27;90905;-68
2021/12/10 02:21:07;;;;;;;41.67;21.43;;;1.20;99.90;1.00;99094.00;;;;5039832;27;92551;-68
2021/12/10 02:23:39;;;;;;;47.90;22.90;;;1.30;99.90;1.00;99106.00;;;;5040809;27;87774;-68
2021/12/10 02:26:10;;;;;;;44.73;23.63;;;1.20;99.90;1.00;99100.00;;;;5021163;27;89005;-68
2021/12/10 02:28:37;;;;;;;43.70;21.13;;;1.40;99.90;1.00;99091.00;;;;5019338;27;91446;-68
2021/12/10 02:31:05;;;;;;;48.13;20.33;;;1.20;99.90;1.00;99085.00;;;;5019044;27;112517;-68
2021/12/10 02:33:31;;;;;;;51.03;20.70;;;1.30;99.90;1.00;99083.00;;;;5001164;27;87936;-68
2021/12/10 02:35:56;;;;;;;30.37;18.30;;;1.20;99.90;1.00;99083.00;;;;5019790;27;102701;-68
2021/12/10 02:38:22;;;;;;;41.67;21.23;;;1.30;99.90;1.10;99068.00;;;;5018936;27;116019;-68
2021/12/10 02:40:52;;;;;;;43.10;19.33;;;1.30;99.90;1.10;99069.00;;;;5020448;27;87879;-68
2021/12/10 02:43:20;;;;;;;45.37;21.53;;;1.30;99.90;1.10;99061.00;;;;5022302;27;87793;-68
2021/12/10 02:45:52;;;;;;;46.00;22.37;;;1.40;99.90;1.10;99054.00;;;;5037369;27;109752;-68
2021/12/10 02:48:18;;;;;;;37.77;19.20;;;1.40;99.90;1.10;99055.00;;;;5039648;27;89458;-68
2021/12/10 02:50:46;;;;;;;41.83;18.80;;;1.30;99.90;1.10;99051.00;;;;5030715;27;91123;-68
2021/12/10 02:53:15;;;;;;;38.73;18.57;;;1.40;99.90;1.10;99044.00;;;;5020098;27;87930;-70
2021/12/10 02:55:41;;;;;;;49.57;22.10;;;1.40;99.90;1.20;99043.00;;;;5017658;27;88703;-69
2021/12/10 02:58:11;;;;;;;39.80;20.60;;;1.40;99.90;1.20;99039.00;;;;5018685;27;107942;-69
2021/12/10 03:00:56;;;;;;;43.60;22.87;;;1.50;99.90;1.20;99038.00;;;;5033366;27;105242;-68
2021/12/10 03:03:23;;;;;;;39.10;21.43;;;1.50;99.90;1.20;99036.00;;;;5039934;27;98748;-68
2021/12/10 03:05:50;;;;;;;44.50;23.00;;;1.50;99.90;1.20;99029.00;;;;5038653;27;88241;-69
2021/12/10 03:08:16;;;;;;;53.87;22.17;;;1.50;99.90;1.20;99023.00;;;;5039068;27;97961;-69
2021/12/10 03:10:42;;;;;;;28.83;18.63;;;1.60;99.90;1.20;99018.00;;;;5038731;27;88743;-68
2021/12/10 03:13:09;;;;;;;42.53;21.27;;;1.50;99.90;1.20;99017.00;;;;5019591;27;87689;-68
2021/12/10 03:15:36;;;;;;;42.67;20.80;;;1.50;99.90;1.20;99008.00;;;;5033730;27;96311;-69
2021/12/10 03:18:07;;;;;;;37.33;19.20;;;1.60;99.90;1.30;99012.00;;;;5039128;27;87729;-68
2021/12/10 03:20:33;;;;;;;45.00;21.60;;;1.50;99.90;1.30;99006.00;;;;5039544;27;87762;-71
2021/12/10 03:23:03;;;;;;;40.33;21.20;;;1.60;99.90;1.30;99000.00;;;;5039899;27;87906;-69
2021/12/10 03:25:29;;;;;;;35.80;19.73;;;1.60;99.90;1.30;99000.00;;;;5039702;27;88298;-69
2021/12/10 03:27:55;;;;;;;39.67;21.53;;;1.50;99.90;1.30;98994.00;;;;5037322;27;87260;-69
2021/12/10 03:30:27;;;;;;;34.53;19.37;;;1.60;99.90;1.30;98980.00;;;;5038990;27;112034;-69
2021/12/10 03:32:54;;;;;;;38.63;20.20;;;1.60;99.90;1.30;98997.00;;;;5036943;27;87662;-70
2021/12/10 03:35:28;;;;;;;40.10;18.73;;;1.60;99.90;1.30;98983.00;;;;5038238;27;103704;-70
2021/12/10 03:37:57;;;;;;;41.43;21.37;;;1.70;99.90;1.40;98989.00;;;;5017259;27;88108;-70
2021/12/10 03:40:23;;;;;;;33.83;19.63;;;1.70;99.90;1.30;98984.00;;;;5031958;27;87741;-70
2021/12/10 03:42:53;;;;;;;37.87;20.33;;;2.10;99.90;1.30;98985.00;;;;5039081;27;89152;-70
2021/12/10 03:45:18;;;;;;;48.73;22.70;;;1.60;99.90;1.30;98982.00;;;;5039407;27;88149;-71
2021/12/10 03:47:45;;;;;;;42.30;21.33;;;1.80;99.90;1.20;98990.00;;;;5037301;27;88088;-71
2021/12/10 03:50:21;;;;;;;38.13;20.73;;;1.60;99.90;1.20;98996.00;;;;5036952;27;94627;-71
2021/12/10 03:52:47;;;;;;;48.13;22.57;;;1.40;99.90;1.10;98997.00;;;;5038932;27;97894;-71
2021/12/10 03:55:14;;;;;;;48.67;21.27;;;1.40;99.90;1.10;98987.00;;;;5038101;27;118414;-72
2021/12/10 03:57:39;;;;;;;40.93;22.33;;;1.40;99.90;1.00;98990.00;;;;5038611;27;88605;-71
2021/12/10 04:00:07;;;;;;;42.63;20.37;;;1.30;99.90;1.00;98986.00;;;;5037846;27;111408;-71
2021/12/10 04:02:32;;;;;;;49.20;22.70;;;1.90;99.90;1.00;98992.00;;;;5038783;27;88056;-71
2021/12/10 04:04:58;;;;;;;44.57;21.43;;;1.30;99.90;0.90;98990.00;;;;5037718;27;117513;-71
2021/12/10 04:07:26;;;;;;;43.67;20.20;;;1.30;99.90;0.90;98984.00;;;;5032304;27;116998;-71
2021/12/10 04:09:54;;;;;;;42.17;21.53;;;1.20;99.90;0.90;98979.00;;;;5017496;27;109281;-72
2021/12/10 04:12:20;;;;;;;35.07;18.83;;;1.10;99.90;0.90;98983.00;;;;5018097;27;93634;-71
2021/12/10 04:14:48;;;;;;;41.53;19.03;;;2.10;99.90;0.90;98976.00;;;;5033348;27;89071;-71
2021/12/10 04:17:14;;;;;;;36.80;19.93;;;1.20;99.90;0.90;98984.00;;;;5036354;27;87294;-70
2021/12/10 04:19:41;;;;;;;44.63;21.67;;;1.20;99.90;0.90;98975.00;;;;5030767;27;87738;-69
2021/12/10 04:22:09;;;;;;;38.77;20.30;;;1.20;99.90;0.90;98986.00;;;;5018563;27;87865;-70
2021/12/10 04:24:38;;;;;;;42.30;20.40;;;1.20;99.90;0.90;98990.00;;;;5017577;27;104596;-69
2021/12/10 04:27:08;;;;;;;47.97;20.53;;;1.20;99.90;0.90;98995.00;;;;5033099;27;88690;-69
2021/12/10 04:29:35;;;;;;;45.03;19.83;;;1.20;99.90;0.90;98992.00;;;;5025418;27;89403;-71
2021/12/10 04:32:03;;;;;;;43.43;18.97;;;1.10;99.90;0.90;98990.00;;;;5017815;27;93461;-71
2021/12/10 04:34:29;;;;;;;43.20;19.43;;;1.20;99.90;0.90;98991.00;;;;5016395;27;88226;-69
2021/12/10 04:37:00;;;;;;;34.90;19.30;;;1.20;99.90;0.90;98997.00;;;;5035744;27;88331;-69
2021/12/10 04:39:26;;;;;;;39.50;20.63;;;1.10;99.90;0.90;99002.00;;;;5037805;27;87958;-69
2021/12/10 04:41:52;;;;;;;35.90;20.10;;;1.20;99.90;0.90;98995.00;;;;5038192;27;87008;-69
2021/12/10 04:44:18;;;;;;;35.93;18.70;;;1.20;99.90;0.90;98990.00;;;;5035752;27;87998;-70
2021/12/10 04:46:44;;;;;;;35.50;17.33;;;2.20;99.90;0.90;99000.00;;;;5034263;27;106329;-69
2021/12/10 04:49:15;;;;;;;41.03;19.00;;;1.20;99.90;1.00;98990.00;;;;5035862;27;110262;-70
2021/12/10 04:51:52;;;;;;;34.73;18.23;;;1.20;99.90;1.00;98995.00;;;;5038351;27;87558;-70
2021/12/10 04:54:21;;;;;;;32.80;17.63;;;1.30;99.90;1.00;98985.00;;;;5025395;27;88320;-70
2021/12/10 04:56:49;;;;;;;38.40;17.90;;;1.30;99.90;1.10;98992.00;;;;5015068;27;104137;-70
2021/12/10 04:59:17;;;;;;;31.30;17.90;;;1.30;99.90;1.10;98975.00;;;;5017717;27;88008;-70
2021/12/10 05:01:46;;;;;;;39.57;18.03;;;1.30;99.90;1.10;98968.00;;;;5017608;27;87716;-70
2021/12/10 05:04:14;;;;;;;28.73;16.93;;;1.30;99.90;1.10;98964.00;;;;5029359;27;88784;-70
2021/12/10 05:06:40;;;;;;;33.67;16.93;;;1.40;99.90;1.10;98963.00;;;;5038253;27;88008;-69
2021/12/10 05:09:10;;;;;;;35.13;17.30;;;1.40;99.90;1.10;98959.00;;;;5037321;27;87724;-69
2021/12/10 05:11:36;;;;;;;42.13;18.03;;;1.40;99.90;1.10;98966.00;;;;5035806;27;87543;-69
2021/12/10 05:14:04;;;;;;;28.77;16.23;;;1.40;99.90;1.10;98962.00;;;;5036495;27;90376;-69
2021/12/10 05:16:29;;;;;;;40.83;17.37;;;1.30;99.90;1.10;98957.00;;;;5035838;27;88179;-69
2021/12/10 05:19:00;;;;;;;26.23;15.70;;;1.70;99.90;1.10;98960.00;;;;5037232;27;92368;-69
2021/12/10 05:21:33;;;;;;;31.30;17.20;;;1.50;99.90;1.10;98954.00;;;;5037378;27;87790;-71
2021/12/10 05:24:00;;;;;;;29.77;16.30;;;1.20;99.90;1.20;98960.00;;;;5036639;27;87729;-71
2021/12/10 05:26:26;;;;;;;36.60;16.17;;;1.40;99.90;1.20;98953.00;;;;5037780;27;88461;-70
2021/12/10 05:28:52;;;;;;;38.07;17.73;;;1.50;99.90;1.20;98959.00;;;;5035839;27;110322;-70
2021/12/10 05:31:18;;;;;;;45.43;17.97;;;1.50;99.90;1.20;98963.00;;;;5031495;27;99852;-70
2021/12/10 05:33:44;;;;;;;30.63;16.10;;;1.40;99.90;1.20;98949.00;;;;5014934;27;96812;-70
2021/12/10 05:36:12;;;;;;;26.63;15.53;;;1.50;99.90;1.10;98948.00;;;;5016389;27;117664;-70
2021/12/10 05:38:37;;;;;;;20.33;13.10;;;1.40;99.90;1.10;98947.00;;;;5018041;27;88889;-70
2021/12/10 05:41:06;;;;;;;30.60;15.43;;;1.40;99.90;1.20;98942.00;;;;5016022;27;109070;-70
2021/12/10 05:43:33;;;;;;;36.27;16.00;;;1.50;99.90;1.20;98934.00;;;;5025559;27;88545;-70
2021/12/10 05:45:59;;;;;;;25.77;15.00;;;1.40;99.90;1.20;98936.00;;;;5036457;27;103417;-70
2021/12/10 05:48:25;;;;;;;30.33;15.37;;;1.50;99.90;1.20;98935.00;;;;5034205;27;111918;-71
2021/12/10 05:50:52;;;;;;;28.50;15.50;;;1.50;99.90;1.20;98932.00;;;;5037569;27;87811;-71
2021/12/10 05:53:18;;;;;;;33.23;16.17;;;1.60;99.90;1.20;98938.00;;;;5037522;27;90074;-70
2021/12/10 05:55:44;;;;;;;23.37;14.20;;;1.50;99.90;1.20;98931.00;;;;5037136;27;107393;-70
2021/12/10 05:58:12;;;;;;;35.70;17.23;;;1.40;99.90;1.20;98925.00;;;;5036876;27;87595;-70
2021/12/10 06:00:55;;;;;;;26.50;15.80;;;1.50;99.90;1.20;98936.00;;;;5021454;27;87765;-70
2021/12/10 06:03:23;;;;;;;23.87;15.57;;;1.60;99.90;1.20;98930.00;;;;5015412;27;89111;-70
2021/12/10 06:05:49;;;;;;;27.03;15.77;;;1.50;99.90;1.20;98926.00;;;;5016871;27;90009;-70
2021/12/10 06:08:16;;;;;;;27.47;17.00;;;1.60;99.90;1.20;98922.00;;;;5013859;27;112827;-70
2021/12/10 06:10:45;;;;;;;28.03;14.03;;;1.40;99.90;1.20;98925.00;;;;5016498;27;103246;-70
2021/12/10 06:13:11;;;;;;;30.93;14.73;;;1.40;99.90;1.20;98916.00;;;;5014389;27;88395;-70
2021/12/10 06:15:38;;;;;;;26.07;14.67;;;1.40;99.90;1.20;98916.00;;;;5016175;27;91911;-70
2021/12/10 06:18:04;;;;;;;27.27;14.37;;;1.50;99.90;1.20;98921.00;;;;5016478;27;88917;-70
2021/12/10 06:20:36;;;;;;;30.03;15.10;;;1.40;99.90;1.20;98919.00;;;;5017197;27;87038;-70
2021/12/10 06:23:02;;;;;;;28.80;16.73;;;1.40;99.90;1.20;98913.00;;;;5015802;27;96856;-70
2021/12/10 06:25:29;;;;;;;30.70;16.50;;;1.50;99.90;1.20;98910.00;;;;5036696;27;88435;-70
2021/12/10 06:27:54;;;;;;;25.17;16.03;;;1.40;99.90;1.10;98919.00;;;;5025834;27;95089;-70
2021/12/10 06:30:26;;;;;;;33.37;15.77;;;1.40;99.90;1.10;98905.00;;;;5028408;27;109697;-71
2021/12/10 06:32:54;;;;;;;39.60;19.10;;;2.30;99.90;1.10;98913.00;;;;5021246;27;88920;-69
2021/12/10 06:35:24;;;;;;;29.67;15.93;;;1.40;99.90;1.10;98917.00;;;;5011150;27;88493;-69
2021/12/10 06:37:51;;;;;;;33.63;15.67;;;1.30;99.90;1.00;98913.00;;;;5021478;27;87862;-69
2021/12/10 06:40:21;;;;;;;25.53;14.47;;;1.30;99.90;1.00;98906.00;;;;5009489;27;87880;-70
2021/12/10 06:42:48;;;;;;;27.90;14.33;;;1.30;99.90;1.00;98905.00;;;;5012211;27;88965;-70
2021/12/10 06:45:16;;;;;;;30.57;15.03;;;1.20;99.90;1.00;98910.00;;;;5022460;27;89225;-70
2021/12/10 06:47:47;;;;;;;26.33;14.50;;;1.20;99.90;0.90;98910.00;;;;5015871;27;87753;-70
2021/12/10 06:50:17;;;;;;;29.87;14.80;;;1.20;99.90;0.90;98903.00;;;;5014806;27;87993;-68
2021/12/10 06:52:43;;;;;;;31.00;15.17;;;1.10;99.90;0.90;98892.00;;;;5017881;27;89224;-68
2021/12/10 06:55:09;;;;;;;22.20;11.93;;;1.20;99.90;0.90;98904.00;;;;5020352;27;107452;-67
2021/12/10 06:57:37;;;;;;;29.03;15.63;;;1.20;99.90;0.90;98888.00;;;;5014506;27;87804;-69
2021/12/10 07:00:07;;;;;;;30.57;15.47;;;1.20;99.90;0.90;98889.00;;;;5014809;27;87818;-69
2021/12/10 07:02:32;;;;;;;29.80;15.53;;;1.20;99.90;0.90;98880.00;;;;5013133;27;102755;-70
2021/12/10 07:04:58;;;;;;;28.80;15.93;;;1.10;99.90;0.90;98881.00;;;;5018304;27;115668;-70
2021/12/10 07:07:24;;;;;;;30.23;16.70;;;1.20;99.90;0.90;98882.00;;;;5013353;27;112687;-70
2021/12/10 07:09:50;;;;;;;28.27;15.20;;;1.20;99.90;0.90;98886.00;;;;5013817;27;107900;-70
2021/12/10 07:12:16;;;;;;;24.90;13.60;;;1.80;99.90;0.90;98897.00;;;;5013066;27;108170;-70
2021/12/10 07:14:43;;;;;;;24.77;14.30;;;1.20;99.90;0.90;98887.00;;;;5014037;27;88823;-69
2021/12/10 07:17:09;;;;;;;24.37;13.73;;;1.20;99.90;0.90;98886.00;;;;5014002;27;89157;-68
2021/12/10 07:19:36;;;;;;;22.17;13.27;;;1.10;99.90;0.90;98890.00;;;;5014772;27;87668;-69
2021/12/10 07:22:03;;;;;;;26.73;13.97;;;1.20;99.90;0.90;98887.00;;;;5013569;27;88992;-68
2021/12/10 07:24:29;;;;;;;18.43;11.87;;;1.20;99.90;0.90;98885.00;;;;5013804;27;107490;-67
2021/12/10 07:26:55;;;;;;;22.40;12.80;;;1.20;99.90;1.00;98879.00;;;;5014137;27;92041;-68
2021/12/10 07:29:21;;;;;;;23.73;13.23;;;1.30;99.90;1.00;98870.00;;;;5014627;27;87727;-69
2021/12/10 07:31:47;;;;;;;26.50;13.20;;;1.30;99.90;1.00;98883.00;;;;5012307;27;117188;-69
2021/12/10 07:34:13;;;;;;;27.17;15.23;;;1.20;99.90;1.00;98868.00;;;;5014463;27;117727;-68
2021/12/10 07:36:40;;;;;;;26.37;13.53;;;2.00;99.90;1.00;98872.00;;;;5013514;27;102039;-68
2021/12/10 07:39:09;;;;;;;25.30;13.60;;;1.30;99.90;1.00;98865.00;;;;5014349;27;87895;-68
2021/12/10 07:41:36;;;;;;;25.27;15.73;;;1.30;99.90;1.00;98868.00;;;;5015710;27;107295;-69
2021/12/10 07:44:03;;;;;;;26.07;14.47;;;1.20;99.90;0.90;98855.00;;;;5012388;27;96685;-68
2021/12/10 07:46:32;;;;;;;24.43;12.90;;;1.20;99.90;0.90;98863.00;;;;5021715;27;88068;-68
2021/12/10 07:48:57;;;;;;;22.23;12.33;;;1.20;99.90;0.90;98861.00;;;;5012208;27;87886;-68
2021/12/10 07:51:27;;;;;;;23.57;14.27;;;1.20;99.90;1.00;98856.00;;;;5012883;27;117821;-68
2021/12/10 07:53:57;;;;;;;26.33;14.37;;;1.20;99.90;0.90;98859.00;;;;5020436;27;89409;-68
2021/12/10 07:56:25;;;;;;;201.93;101.13;;;1.20;99.90;0.90;98858.00;;;;5011456;27;87717;-68
2021/12/10 07:58:52;;;;;;;73.77;37.43;;;1.20;99.90;0.90;98859.00;;;;5011409;27;87254;-68
2021/12/10 08:01:24;;;;;;;32.97;17.77;;;1.20;99.90;0.90;98861.00;;;;5012855;27;104138;-68
2021/12/10 08:03:52;;;;;;;35.73;16.53;;;1.20;99.90;0.90;98859.00;;;;5015065;27;87953;-68
2021/12/10 08:06:20;;;;;;;24.60;15.03;;;1.20;99.90;0.90;98860.00;;;;5013282;27;88748;-68
2021/12/10 08:08:46;;;;;;;24.83;12.73;;;1.20;99.90;0.90;98857.00;;;;5018534;27;87636;-68
2021/12/10 08:11:13;;;;;;;21.13;12.73;;;1.20;99.90;0.90;98848.00;;;;5011757;27;110367;-68
2021/12/10 08:13:39;;;;;;;25.50;12.03;;;1.10;99.90;0.90;98854.00;;;;5018930;27;88803;-67
2021/12/10 08:16:05;;;;;;;21.83;12.47;;;1.00;99.90;0.80;98847.00;;;;5014402;27;98568;-67
2021/12/10 08:18:31;;;;;;;33.43;17.67;;;2.00;99.90;0.80;98846.00;;;;5012781;27;87831;-67
2021/12/10 08:20:58;;;;;;;27.03;16.07;;;1.10;99.90;0.80;98853.00;;;;5013404;27;118559;-67
2021/12/10 08:23:24;;;;;;;28.93;15.37;;;1.00;99.90;0.90;98856.00;;;;5011880;27;89985;-67
2021/12/10 08:25:51;;;;;;;25.87;16.50;;;1.10;99.90;0.80;98852.00;;;;5013406;27;88118;-67
2021/12/10 08:28:22;;;;;;;26.23;16.63;;;1.10;99.90;0.80;98850.00;;;;5015405;27;87955;-66
2021/12/10 08:30:50;;;;;;;51.37;29.27;;;1.00;99.90;0.80;98850.00;;;;5012550;27;88661;-66
2021/12/10 08:33:17;;;;;;;26.70;15.77;;;1.10;99.90;0.80;98848.00;;;;5010791;27;89498;-67
2021/12/10 08:35:50;;;;;;;25.33;14.77;;;1.80;99.90;0.90;98847.00;;;;5011004;27;87712;-67
2021/12/10 08:38:16;;;;;;;26.57;17.23;;;1.10;99.90;0.90;98836.00;;;;5031188;27;87946;-66
2021/12/10 08:40:48;;;;;;;24.63;14.43;;;0.80;99.90;0.80;98844.00;;;;5031109;27;118286;-66
2021/12/10 08:43:15;;;;;;;24.93;12.57;;;1.00;99.90;0.80;98840.00;;;;5015495;27;88725;-67
2021/12/10 08:45:42;;;;;;;24.37;12.23;;;1.00;99.90;0.90;98838.00;;;;5022606;27;95066;-67
2021/12/10 08:48:08;;;;;;;17.03;10.17;;;1.10;99.90;0.90;98834.00;;;;5015347;27;87097;-66
2021/12/10 08:50:35;;;;;;;15.70;10.10;;;1.10;99.90;0.90;98822.00;;;;5011319;27;117680;-66
2021/12/10 08:53:06;;;;;;;20.67;12.13;;;1.20;99.90;1.00;98826.00;;;;5012802;27;88223;-66
2021/12/10 08:55:35;;;;;;;18.90;10.37;;;1.10;99.90;1.00;98822.00;;;;5013672;27;88870;-66
2021/12/10 08:58:01;;;;;;;18.03;11.50;;;1.30;99.90;1.00;98819.00;;;;5012321;27;97164;-66
2021/12/10 09:00:28;;;;;;;30.70;25.07;;;1.30;99.90;1.10;98820.00;;;;5012524;27;89095;-67
2021/12/10 09:02:55;;;;;;;34.20;20.30;;;1.30;99.90;1.10;98822.00;;;;5012592;27;89159;-67
2021/12/10 09:05:22;;;;;;;27.30;19.63;;;1.40;99.90;1.10;98817.00;;;;5019306;27;87694;-68
2021/12/10 09:07:48;;;;;;;22.40;14.03;;;1.30;99.90;1.10;98831.00;;;;5012946;27;89660;-68
2021/12/10 09:10:22;;;;;;;19.07;11.40;;;1.40;99.90;1.20;98813.00;;;;5014646;27;89063;-68
2021/12/10 09:12:50;;;;;;;17.77;9.33;;;1.40;99.90;1.20;98820.00;;;;5012864;27;88203;-68
2021/12/10 09:15:20;;;;;;;20.23;10.37;;;1.50;99.90;1.30;98817.00;;;;5011879;27;87821;-68
2021/12/10 09:17:48;;;;;;;13.23;8.53;;;1.50;99.90;1.30;98817.00;;;;5017514;27;87788;-67
2021/12/10 09:20:23;;;;;;;15.87;9.23;;;1.50;99.90;1.40;98819.00;;;;5011701;27;106052;-66
2021/12/10 09:22:49;;;;;;;20.17;9.80;;;1.50;99.90;1.40;98820.00;;;;5012100;27;89870;-66
2021/12/10 09:25:17;;;;;;;19.90;11.07;;;1.60;99.90;1.50;98816.00;;;;5012569;27;94760;-66
2021/12/10 09:27:43;;;;;;;22.70;13.47;;;1.70;99.90;1.50;98800.00;;;;5011751;27;89839;-67
2021/12/10 09:30:12;;;;;;;22.53;16.33;;;1.70;99.90;1.60;98807.00;;;;5010655;27;109019;-66
2021/12/10 09:32:38;;;;;;;17.57;11.23;;;1.80;99.90;1.60;98804.00;;;;5012105;27;88058;-65
2021/12/10 09:35:07;;;;;;;24.23;13.73;;;1.80;99.90;1.70;98807.00;;;;5016064;27;100227;-66
2021/12/10 09:37:36;;;;;;;20.83;12.53;;;1.90;99.90;1.70;98807.00;;;;5012463;27;87513;-67
2021/12/10 09:40:10;;;;;;;24.23;14.77;;;1.90;99.90;1.80;98783.00;;;;5011621;27;110203;-67
2021/12/10 09:42:36;;;;;;;47.90;31.70;;;2.00;99.90;1.80;98794.00;;;;5014569;27;87859;-67
2021/12/10 09:45:07;;;;;;;104.07;63.87;;;1.90;99.90;1.80;98783.00;;;;5012370;27;102791;-68
2021/12/10 09:47:33;;;;;;;73.03;44.23;;;2.10;99.90;1.90;98782.00;;;;5011751;27;87707;-68
2021/12/10 09:49:59;;;;;;;49.37;31.93;;;2.00;99.90;1.90;98782.00;;;;5017966;27;116702;-68
2021/12/10 09:52:26;;;;;;;29.57;15.53;;;2.00;99.90;1.90;98778.00;;;;5011390;27;88456;-68
2021/12/10 09:54:53;;;;;;;21.43;15.37;;;2.20;99.90;1.90;98784.00;;;;5012374;27;88050;-68
2021/12/10 09:57:27;;;;;;;25.03;13.43;;;2.20;99.90;1.90;98774.00;;;;5011642;27;87665;-68
2021/12/10 09:59:55;;;;;;;22.43;14.83;;;2.80;99.90;1.90;98787.00;;;;5012207;27;106814;-67
2021/12/10 10:02:23;;;;;;;16.67;11.00;;;2.10;99.90;1.90;98778.00;;;;5012569;27;88225;-66
2021/12/10 10:04:51;;;;;;;19.13;9.53;;;2.20;99.90;1.90;98784.00;;;;5012183;27;95375;-67
2021/12/10 10:07:28;;;;;;;15.80;9.80;;;2.10;99.90;1.90;98785.00;;;;5012640;27;87749;-65
2021/12/10 10:10:04;;;;;;;14.20;8.73;;;2.20;99.90;2.00;98784.00;;;;5014042;27;88988;-67
2021/12/10 10:12:33;;;;;;;10.93;7.73;;;2.20;99.90;2.00;98783.00;;;;5010283;27;106602;-68
2021/12/10 10:15:03;;;;;;;14.57;7.60;;;2.20;99.90;2.00;98772.00;;;;5018762;27;87935;-68
2021/12/10 10:17:29;;;;;;;10.60;6.57;;;2.70;99.90;2.10;98771.00;;;;5014817;27;87855;-68
2021/12/10 10:19:55;;;;;;;15.00;7.40;;;2.20;99.90;2.10;98775.00;;;;5013046;27;117798;-69
2021/12/10 10:22:27;;;;;;;13.87;7.77;;;2.20;99.90;2.20;98767.00;;;;5012541;27;116094;-67
2021/12/10 10:24:53;;;;;;;15.03;6.30;;;2.40;99.90;2.20;98765.00;;;;5015610;27;87638;-66
2021/12/10 10:27:27;;;;;;;10.50;6.57;;;2.50;99.90;2.20;98752.00;;;;5016337;27;87053;-66
2021/12/10 10:30:12;;;;;;;14.13;10.27;;;2.50;99.90;2.20;98753.00;;;;5019359;27;87794;-65
2021/12/10 10:32:43;;;;;;;11.00;7.13;;;2.40;99.90;2.20;98753.00;;;;5014708;27;88640;-65
2021/12/10 10:35:17;;;;;;;11.50;6.90;;;2.50;99.90;2.20;98755.00;;;;5015698;27;88760;-65
2021/12/10 10:37:45;;;;;;;12.17;7.17;;;2.40;99.90;2.20;98750.00;;;;5020719;27;88018;-66
2021/12/10 10:40:18;;;;;;;10.47;6.73;;;2.40;99.90;2.20;98743.00;;;;5015829;27;88027;-65
2021/12/10 10:42:44;;;;;;;9.63;6.83;;;2.40;99.90;2.20;98749.00;;;;5020415;27;98260;-65
2021/12/10 10:45:17;;;;;;;12.33;7.93;;;2.40;99.90;2.20;98738.00;;;;5016209;27;87767;-66
2021/12/10 10:47:44;;;;;;;9.97;7.23;;;2.40;99.90;2.20;98736.00;;;;5017818;27;87710;-66
2021/12/10 10:50:20;;;;;;;14.60;8.07;;;2.40;99.90;2.10;98743.00;;;;5015244;27;88165;-66
2021/12/10 10:52:54;;;;;;;22.73;16.17;;;2.40;99.90;2.20;98731.00;;;;5014880;27;106268;-67
2021/12/10 10:55:34;;;;;;;12.03;8.60;;;2.40;99.90;2.20;98740.00;;;;5014116;27;101628;-67
2021/12/10 10:58:09;;;;;;;11.60;7.30;;;2.40;99.90;2.20;98739.00;;;;5015731;27;87916;-67
2021/12/10 11:01:21;;;;;;;15.37;8.83;;;2.40;99.90;2.20;98734.00;;;;5017051;27;89003;-67
2021/12/10 11:03:52;;;;;;;14.63;8.50;;;2.30;99.90;2.20;98738.00;;;;5013204;27;88421;-67
2021/12/10 11:06:28;;;;;;;42.43;25.20;;;2.50;99.90;2.20;98733.00;;;;5013443;27;88008;-66
2021/12/10 11:09:06;;;;;;;10.57;7.40;;;2.40;99.90;2.20;98736.00;;;;5016168;27;87901;-67
2021/12/10 11:11:35;;;;;;;12.60;7.17;;;2.30;99.90;2.20;98745.00;;;;5013961;27;87774;-67
2021/12/10 11:14:11;;;;;;;14.23;7.80;;;2.50;99.90;2.20;98742.00;;;;5017666;27;88524;-67